• Join FlightAware (Why Join?)
  • Login
  • US Flag 
07:52AM EDT


 

Airport Tracker/Info


-or-


 

Live Flight TrackerFlight Track Log ✈ AAL1358 ✈ 07-May-2013 ✈ KORD - KBOS

Flight Track Log - Related Links

Times and Time Zones

All times are in EDT time to prevent confusion due to time zone crossing. See the AAL1358 flight status page for this flight to view local times or setup timezone preferences in your user account.

Time Position Orientation Groundspeed Altitude Reporting Facility
EDT Latitude Longitude Course Direction KTS MPH feet Rate Location/Type
11:31PM 42.0333 -87.8333 75° East 262 302 4,300  Level Chicago TRACON
11:32PM 42.1178 -87.5054 64° Northeast  Level FlightAware Approximate
11:32PM 42.0333 -87.7333 90° East 275 316 7,300  Level Chicago TRACON
11:33PM 42.1662 -87.3683 66° East  Level FlightAware Approximate
11:34PM 42.2123 -87.2298 66° East  Level FlightAware Approximate
11:35PM 42.2583 -87.0919 75° East  Level FlightAware Approximate
11:35PM 42.1225 -87.5050 62° Northeast 297 342 14,800  Level Chicago Center
11:36PM 42.1606 -87.4000 64° Northeast 309 356 15,000 420 Climbing Chicago Center
11:37PM 42.2000 -87.2886 64° Northeast 328 377 15,700 1,680 Climbing Chicago Center
11:38PM 42.2461 -87.1556 65° Northeast 383 441 18,500 2,760 Climbing Chicago Center
11:39PM 42.2825 -87.0133 71° East 403 464 21,400 2,700 Climbing Chicago Center
11:40PM 42.2883 -86.8556 87° East 418 481 24,000 2,640 Climbing Chicago Center
11:41PM 42.2953 -86.6694 87° East 430 495 26,800 2,280 Climbing Chicago Center
11:42PM 42.3003 -86.5183 87° East 439 505 28,600 1,860 Climbing Chicago Center
11:43PM 42.3064 -86.3592 87° East 449 517 30,600 2,220 Climbing Chicago Center
11:44PM 42.3122 -86.1931 87° East 447 514 33,200 2,280 Climbing Chicago Center
11:45PM 42.3144 -86.0339 89° East 435 501 35,300 1,980 Climbing Chicago Center
11:46PM 42.3125 -85.8456 91° East 423 487 37,200 1,500 Climbing Chicago Center
11:47PM 42.3103 -85.6889 91° East 422 486 38,400 840 Climbing Chicago Center
11:48PM 42.3081 -85.5297 91° East 424 488 39,000 240 Climbing Chicago Center
11:49PM 42.3069 -85.3736 90° East 422 486 39,000  Level Chicago Center
11:50PM 42.3078 -85.2333 89° East 401 461 39,000  Level Cleveland Center
11:51PM 42.3014 -85.0783 93° East 401 461 39,000  Level Cleveland Center
11:52PM 42.3011 -84.9267 90° East 408 470 39,000  Level Cleveland Center
11:53PM 42.3131 -84.7731 84° East 408 470 39,000  Level Cleveland Center
11:54PM 42.3178 -84.6386 87° East 405 466 39,000  Level Cleveland Center
11:55PM 42.3333 -84.4878 82° East 405 466 39,000  Level Cleveland Center
11:56PM 42.3447 -84.3339 84° East 405 466 39,000  Level Cleveland Center
11:57PM 42.3578 -84.1856 83° East 405 466 39,000  Level Cleveland Center
11:58PM 42.3714 -84.0206 84° East 405 466 39,000  Level Cleveland Center
11:59PM 42.3858 -83.8753 82° East 405 466 39,000  Level Cleveland Center
12:00AM 42.3967 -83.7211 85° East 405 466 39,000  Level Cleveland Center
12:01AM 42.4067 -83.5725 85° East 405 466 39,000  Level Cleveland Center
12:02AM 42.4189 -83.4211 84° East 410 472 39,000  Level Cleveland Center
12:03AM 42.4308 -83.2669 84° East 410 472 39,000  Level Cleveland Center
12:04AM 42.4428 -83.1097 84° East 410 472 39,000  Level Cleveland Center
12:05AM 42.4544 -82.9556 84° East 410 472 39,000  Level Cleveland Center
12:06AM 42.4636 -82.8067 85° East 405 466 39,000  Level Cleveland Center
12:07AM 42.4747 -82.6578 84° East 405 466 39,000  Level Cleveland Center
12:08AM 42.4858 -82.5061 84° East 405 466 39,000  Level Cleveland Center
12:09AM 42.4944 -82.3544 86° East 405 466 39,000  Level Cleveland Center
12:10AM 42.5072 -82.2056 83° East 400 460 39,000  Level Cleveland Center
12:11AM 42.5133 -82.0592 87° East 400 460 39,000  Level Cleveland Center
12:12AM 42.5233 -81.9100 85° East 400 460 39,000  Level Cleveland Center
12:13AM 42.5356 -81.7639 83° East 400 460 39,000  Level Cleveland Center
12:14AM 42.5431 -81.6147 86° East 392 451 39,000  Level Cleveland Center
12:15AM 42.5528 -81.4681 85° East 391 450 39,000  Level Cleveland Center
12:16AM 42.5600 -81.3189 86° East 391 450 39,000  Level Cleveland Center
12:17AM 42.5692 -81.1639 85° East 396 456 39,000  Level Cleveland Center
12:18AM 42.5783 -81.0117 85° East 402 463 39,000  Level Cleveland Center
12:19AM 42.5869 -80.8594 86° East 401 461 39,000  Level Cleveland Center
12:20AM 42.5936 -80.7242 86° East 401 461 39,000  Level Cleveland Center
12:22AM 42.6097 -80.4597 86° East  Level FlightAware Approximate
12:29AM 42.6558 -79.4490 86° East  Level FlightAware Approximate
12:30AM 42.6617 -79.3044 87° East  Level FlightAware Approximate
12:31AM 42.6674 -79.1599 87° East  Level FlightAware Approximate
12:32AM 42.6729 -79.0153 87° East  Level FlightAware Approximate
12:33AM 42.6782 -78.8707 87° East  Level FlightAware Approximate
12:34AM 42.6833 -78.7261 87° East  Level FlightAware Approximate
12:35AM 42.6883 -78.5815 87° East  Level FlightAware Approximate
12:36AM 42.6931 -78.4368 87° East  Level FlightAware Approximate
12:37AM 42.6977 -78.2921 87° East  Level FlightAware Approximate
12:38AM 42.7020 -78.1474 88° East  Level FlightAware Approximate
12:39AM 42.7059 -78.0027 88° East  Level FlightAware Approximate
12:39AM 42.7100 -77.8356 88° East 431 496 39,000  Level Boston Center
12:40AM 42.7097 -77.8579 88° East  Level FlightAware Approximate
12:40AM 42.7122 -77.6575 89° East 437 503 39,000  Level Boston Center
12:41AM 42.7133 -77.7131 88° East  Level FlightAware Approximate
12:41AM 42.7158 -77.5306 88° East 410 472 39,000  Level Boston Center
12:42AM 42.7167 -77.5683 88° East  Level FlightAware Approximate
12:42AM 42.7206 -77.3756 88° East 398 458 39,000  Level Boston Center
12:43AM 42.7247 -77.2258 88° East 398 458 39,000  Level Boston Center
12:44AM 42.7272 -77.0650 89° East 398 458 39,000  Level Boston Center
12:45AM 42.7292 -76.9181 89° East 392 451 39,000  Level Boston Center
12:46AM 42.7328 -76.7656 88° East 392 451 39,000  Level Boston Center
12:47AM 42.7364 -76.6186 88° East 392 451 39,000  Level Boston Center
12:48AM 42.7397 -76.4661 88° East 392 451 39,000  Level Boston Center
12:49AM 42.7389 -76.3133 90° East 397 457 39,000 -60 Level Boston Center
12:50AM 42.7328 -76.1772 93° East 403 464 38,900  Descending Boston Center
12:51AM 42.7292 -76.0300 92° East 403 464 39,000  Climbing Boston Center
12:52AM 42.7258 -75.8772 92° East 403 464 39,000 -60 Level Boston Center
12:53AM 42.7217 -75.7272 92° East 403 464 38,900 -60 Descending Boston Center
12:54AM 42.7156 -75.5742 93° East 403 464 38,900  Level Boston Center
12:55AM 42.7094 -75.4211 93° East 403 464 38,900  Level Boston Center
12:56AM 42.7050 -75.2714 92° East 403 464 39,000  Climbing Boston Center
12:57AM 42.6983 -75.1156 93° East 403 464 38,900 -60 Descending Boston Center
12:58AM 42.6914 -74.9628 93° East 408 470 38,900  Level Boston Center
12:59AM 42.6861 -74.8128 93° East 403 464 38,900  Level Boston Center
01:00AM 42.6811 -74.6572 92° East 403 464 39,000  Climbing Boston Center
01:01AM 42.6756 -74.5044 93° East 403 464 39,000 -60 Level Boston Center
01:02AM 42.6656 -74.3517 95° East 403 464 38,900 -180 Descending Boston Center
01:03AM 42.6619 -74.2019 92° East 403 464 38,700 -300 Descending Boston Center
01:04AM 42.6536 -74.0492 94° East 408 470 38,300 -480 Descending Boston Center
01:05AM 42.6475 -73.8967 93° East 408 470 37,800 -600 Descending Boston Center
01:06AM 42.6367 -73.7439 95° East 408 470 37,100 -660 Descending Boston Center
01:07AM 42.6342 -73.5886 91° East 402 463 36,500 -600 Descending Boston Center
01:08AM 42.6275 -73.4361 93° East 407 468 35,900 -660 Descending Boston Center
01:09AM 42.6183 -73.2753 94° East 412 474 35,200 -720 Descending Boston Center
01:10AM 42.6111 -73.1144 93° East 418 481 34,500 -840 Descending Boston Center
01:11AM 42.5994 -72.9253 95° East 446 513 33,600 -2,100 Descending Boston Center
01:12AM 42.5897 -72.7586 94° East 446 513 30,400 -3,000 Descending Boston Center
01:13AM 42.5794 -72.5953 95° East 436 502 27,600 -2,760 Descending Boston Center
01:14AM 42.5714 -72.4400 94° East 431 496 24,900 -2,700 Descending Boston Center
01:15AM 42.5628 -72.2936 95° East 416 479 22,300 -2,580 Descending Boston Center
01:16AM 42.5522 -72.1497 96° East 387 445 19,800 -2,460 Descending Boston Center
01:17AM 42.5414 -72.0203 96° East 387 445 17,400 -2,400 Descending Boston Center
01:18AM 42.5281 -71.8711 97° East 378 435 15,000 -2,280 Descending Boston Center
01:19AM 42.5172 -71.7528 97° East 357 411 12,900 -2,040 Descending Boston Center
01:20AM 42.5036 -71.6206 98° East 339 390 11,000 -1,320 Descending Boston Center
01:20AM 42.5000 -71.5667 95° East 330 380 11,000  Level KA90
01:21AM 42.4833 -71.4500 101° East 324 373 11,000 -120 Level KA90
01:22AM 42.4833 -71.3167 90° East 328 377 10,800 -660 Descending KA90
01:23AM 42.4667 -71.2167 103° East 280 322 9,700 -1,680 Descending KA90
01:24AM 42.4500 -71.1167 103° East 268 308 7,500 -2,280 Descending KA90
01:25AM 42.4500 -71.0167 90° East 271 312 5,200 -2,160 Descending KA90
01:26AM 42.4333 -70.9167 103° East 270 311 3,200 -1,560 Descending KA90
01:27AM 42.4311 -70.8592 93° East 262 302 2,800 -900 Descending Boston Center
01:28AM 42.4156 -70.7978 109° East 239 275 1,900 -480 Descending Boston Center
01:29AM 42.3703 -70.8383 213° Southwest 112 129 1,900 -60 Level Boston Center
01:30AM 42.3397 -70.8783 224° Southwest 118 136 1,800 -240 Descending Boston Center
01:30AM 42.3333 -70.9000 248° West 154 177 1,600 -480 Descending KA90